Time;durP1;ratioP1;P1;durP2;ratioP2;P2;SDS_P1;SDS_P2;PMS_P1;PMS_P2;Temp;Humidity;BMP_temperature;BMP_pressure;BME280_temperature;BME280_humidity;BME280_pressure;Samples;Min_cycle;Max_cycle;Signal;HPM_P1;HPM_P2
2021/11/12 00:11:51;;;;;;;21.10;14.10;;;;;;;-0.65;100.00;102013.26;1815636;78;21045;-83
2021/11/12 00:13:06;;;;;;;15.35;12.13;;;;;;;-0.67;100.00;101991.10;1815232;78;21108;-81
2021/11/12 00:15:40;;;;;;;15.30;12.60;;;;;;;-0.67;100.00;101981.70;1817810;78;21516;-80
2021/11/12 00:18:05;;;;;;;16.50;12.53;;;;;;;-0.66;100.00;101979.57;1817593;78;22450;-79
2021/11/12 00:20:32;;;;;;;14.90;12.03;;;;;;;-0.64;100.00;101977.86;1817948;78;21112;-80
2021/11/12 00:22:59;;;;;;;15.32;12.28;;;;;;;-0.62;100.00;101971.89;1815057;78;21531;-80
2021/11/12 00:25:26;;;;;;;16.67;11.75;;;;;;;-0.60;100.00;101959.94;1815373;78;21456;-81
2021/11/12 00:27:53;;;;;;;13.48;11.55;;;;;;;-0.58;100.00;101960.75;1817713;78;21573;-80
2021/11/12 00:35:49;;;;;;;17.12;14.30;;;;;;;-0.53;100.00;101944.95;1817904;78;21033;-81
2021/11/12 00:38:24;;;;;;;16.60;13.78;;;;;;;-0.50;100.00;101940.66;1817691;78;21065;-80
2021/11/12 00:41:11;;;;;;;20.70;13.85;;;;;;;-0.44;100.00;101945.30;1817799;78;21018;-80
2021/11/12 00:43:43;;;;;;;21.42;15.40;;;;;;;-0.40;100.00;101943.16;1817628;78;21036;-80
2021/11/12 00:46:22;;;;;;;16.30;14.28;;;;;;;-0.36;100.00;101941.81;1817703;78;21828;-83
2021/11/12 00:48:58;;;;;;;23.38;15.60;;;;;;;-0.30;100.00;101940.09;1817413;78;21069;-79
2021/11/12 00:51:26;;;;;;;22.55;15.88;;;;;;;-0.25;100.00;101937.04;1817470;78;21021;-82
2021/11/12 00:54:05;;;;;;;21.60;15.70;;;;;;;-0.18;100.00;101925.88;1789148;78;21009;-80
2021/11/12 00:56:29;;;;;;;20.05;15.58;;;;;;;-0.11;100.00;101919.00;1788989;78;21010;-82
2021/11/12 00:59:00;;;;;;;20.37;16.25;;;;;;;-0.08;100.00;101917.70;1815202;78;20998;-80
2021/11/12 01:01:30;;;;;;;;;;;;;;;-0.07;100.00;101907.44;1820379;78;21066;-79
2021/11/12 01:03:57;;;;;;;22.10;16.62;;;;;;;-0.05;100.00;101909.97;1817991;78;20150;-80
2021/11/12 01:06:25;;;;;;;20.90;17.17;;;;;;;-0.04;100.00;101906.10;1818261;78;21033;-80
2021/11/12 01:08:52;;;;;;;21.77;17.55;;;;;;;-0.02;100.00;101910.79;1817981;78;21529;-79
2021/11/12 01:11:21;;;;;;;23.40;17.92;;;;;;;-0.01;100.00;101902.25;1818641;78;21111;-80
2021/11/12 01:13:50;;;;;;;25.75;19.20;;;;;;;0.02;100.00;101901.80;1817941;78;21531;-82
2021/11/12 01:16:18;;;;;;;23.95;19.27;;;;;;;0.03;100.00;101895.82;1813824;78;20963;-80
2021/11/12 01:18:48;;;;;;;22.42;17.23;;;;;;;0.06;100.00;101901.76;1812234;79;21702;-79
2021/11/12 01:21:17;;;;;;;24.35;18.27;;;;;;;0.10;100.00;101905.97;1812376;78;21045;-79
2021/11/12 01:23:49;;;;;;;22.48;18.30;;;;;;;0.14;100.00;101902.94;1807569;79;21151;-79
2021/11/12 01:26:20;;;;;;;28.52;18.80;;;;;;;0.17;100.00;101897.80;1807650;79;21021;-80
2021/11/12 01:28:47;;;;;;;25.12;18.90;;;;;;;0.19;100.00;101901.20;1812319;79;21523;-80
2021/11/12 01:31:14;;;;;;;25.68;19.62;;;;;;;0.23;100.00;101902.01;1812618;79;21014;-81
2021/11/12 01:33:43;;;;;;;29.55;20.02;;;;;;;0.26;100.00;101904.10;1812377;78;21104;-80
2021/11/12 01:38:51;;;;;;;27.45;21.27;;;;;;;0.31;100.00;101895.09;1812432;79;21566;-80
2021/11/12 01:41:18;;;;;;;25.48;20.48;;;;;;;0.36;100.00;101900.99;1812601;78;21045;-80
2021/11/12 01:43:48;;;;;;;26.07;20.70;;;;;;;0.35;100.00;101889.05;1807307;78;21057;-81
2021/11/12 01:51:26;;;;;;;25.23;20.12;;;;;;;0.36;100.00;101893.75;1812692;79;21096;-80
2021/11/12 01:54:18;;;;;;;25.95;19.82;;;;;;;0.36;100.00;101893.30;1780911;79;21583;-80
2021/11/12 01:56:30;;;;;;;27.43;20.43;;;;;;;0.40;100.00;101889.82;1812042;78;21045;-79
2021/11/12 02:01:46;;;;;;;26.27;20.02;;;;;;;0.52;100.00;101893.11;1811924;78;21851;-81
2021/11/12 02:04:18;;;;;;;27.73;20.43;;;;;;;0.56;100.00;101887.93;1811795;78;21073;-81
2021/11/12 02:06:46;;;;;;;28.95;21.68;;;;;;;0.62;100.00;101887.84;1812279;79;21012;-80
2021/11/12 02:09:17;;;;;;;27.00;20.23;;;;;;;0.65;100.00;101882.27;1811900;79;21515;-80
2021/11/12 02:11:48;;;;;;;26.97;20.68;;;;;;;0.68;100.00;101877.95;1808627;78;21480;-80
2021/11/12 02:14:18;;;;;;;28.73;21.45;;;;;;;0.70;100.00;101881.77;1807353;78;21464;-79
2021/11/12 02:17:19;;;;;;;30.62;20.72;;;;;;;0.73;100.00;101881.73;1806972;79;21042;-80
2021/11/12 02:19:49;;;;;;;27.62;20.08;;;;;;;0.74;100.00;101880.87;1779998;79;21010;-80
2021/11/12 02:22:18;;;;;;;28.70;21.33;;;;;;;0.77;100.00;101879.11;1812340;78;21330;-80
2021/11/12 02:24:50;;;;;;;29.10;21.17;;;;;;;0.81;100.00;101882.89;1811801;79;21005;-80
2021/11/12 02:27:19;;;;;;;25.82;20.30;;;;;;;0.82;100.00;101880.33;1811344;79;21063;-82
2021/11/12 02:29:54;;;;;;;29.35;19.90;;;;;;;0.85;100.00;101876.88;1806883;79;21108;-80
2021/11/12 02:32:24;;;;;;;25.43;20.62;;;;;;;0.86;100.00;101876.00;1780503;79;21042;-79
2021/11/12 02:34:56;;;;;;;28.77;20.62;;;;;;;0.85;100.00;101876.42;1812066;78;21018;-80
2021/11/12 02:37:29;;;;;;;30.23;21.73;;;;;;;0.82;100.00;101872.64;1811878;78;21992;-79
2021/11/12 02:39:56;;;;;;;28.32;20.45;;;;;;;0.81;100.00;101872.22;1811729;79;21141;-80
2021/11/12 02:42:25;;;;;;;26.25;19.57;;;;;;;0.81;100.00;101869.66;1812241;79;20998;-80
2021/11/12 02:44:53;;;;;;;26.42;20.57;;;;;;;0.83;100.00;101862.80;1812100;78;21038;-79
2021/11/12 02:47:21;;;;;;;29.80;19.60;;;;;;;0.84;100.00;101861.06;1807363;78;21025;-80
2021/11/12 02:49:51;;;;;;;25.32;19.73;;;;;;;0.84;100.00;101858.05;1807194;78;21541;-81
2021/11/12 02:52:19;;;;;;;24.18;19.37;;;;;;;0.85;100.00;101862.77;1812211;78;21148;-81
2021/11/12 02:54:48;;;;;;;26.60;18.85;;;;;;;0.84;100.00;101854.20;1811881;79;21587;-80
2021/11/12 02:57:19;;;;;;;23.00;18.20;;;;;;;0.83;100.00;101852.53;1812174;79;21029;-79
2021/11/12 02:59:47;;;;;;;27.65;18.92;;;;;;;0.84;100.00;101846.51;1812175;79;20998;-80
2021/11/12 03:02:15;;;;;;;25.10;17.73;;;;;;;0.87;100.00;101843.91;1812313;78;21002;-80
2021/11/12 03:04:43;;;;;;;22.80;18.00;;;;;;;0.87;100.00;101832.82;1812235;78;21903;-81
2021/11/12 03:07:11;;;;;;;22.52;17.80;;;;;;;0.86;100.00;101833.69;1807495;79;20991;-81
2021/11/12 03:09:40;;;;;;;23.98;18.73;;;;;;;0.86;100.00;101834.52;1812226;79;21037;-83
2021/11/12 03:12:10;;;;;;;25.60;18.53;;;;;;;0.87;100.00;101823.39;1812489;78;21093;-79
2021/11/12 03:14:38;;;;;;;23.73;18.80;;;;;;;0.90;100.00;101822.08;1807016;79;21034;-79
2021/11/12 03:17:05;;;;;;;25.08;18.48;;;;;;;0.94;100.00;101808.32;1816218;78;21126;-80
2021/11/12 03:19:34;;;;;;;22.58;17.87;;;;;;;0.93;100.00;101800.66;1814938;78;21332;-79
2021/11/12 03:22:08;;;;;;;22.73;18.17;;;;;;;0.93;100.00;101794.25;1817591;78;21392;-80
2021/11/12 03:24:38;;;;;;;22.55;17.73;;;;;;;0.97;100.00;101788.63;1817195;78;20998;-79
2021/11/12 03:30:07;;;;;;;24.87;16.60;;;;;;;0.99;100.00;101789.02;1814993;78;21129;-79
2021/11/12 03:59:50;;;;;;;24.37;17.40;;;;;;;1.07;100.00;101756.83;1790677;79;21143;-81
2021/11/12 04:01:58;;;;;;;22.85;16.57;;;;;;;1.13;100.00;101746.45;1792150;79;21048;-79
2021/11/12 04:04:34;;;;;;;26.50;16.82;;;;;;;1.18;100.00;101742.53;1790642;80;21002;-81
2021/11/12 04:17:59;;;;;;;51.02;18.55;;;;;;;1.24;100.00;101723.16;1798797;78;21037;-79
2021/11/12 05:03:06;;;;;;;21.40;15.38;;;;;;;2.19;100.00;101706.27;1727960;81;21064;-80
2021/11/12 05:33:43;;;;;;;24.23;16.73;;;;;;;2.03;100.00;101668.95;1792341;80;21474;-82
2021/11/12 05:44:25;;;;;;;20.45;15.40;;;;;;;2.11;100.00;101674.76;1759867;80;21046;-80
2021/11/12 05:52:20;;;;;;;25.25;16.70;;;;;;;2.28;100.00;101660.22;1788268;80;21050;-80
2021/11/12 05:57:29;;;;;;;25.65;17.07;;;;;;;2.41;100.00;101656.06;1793242;80;21894;-81
2021/11/12 05:59:56;;;;;;;20.82;16.80;;;;;;;2.49;100.00;101656.30;1788127;80;21051;-80
2021/11/12 06:02:23;;;;;;;22.20;15.88;;;;;;;2.58;100.00;101660.80;1793577;80;21034;-80
2021/11/12 06:04:51;;;;;;;22.80;18.48;;;;;;;2.63;100.00;101655.09;1804824;78;21073;-81
2021/11/12 06:07:18;;;;;;;24.72;17.77;;;;;;;2.70;100.00;101649.36;1800675;78;21009;-81
2021/11/12 06:09:46;;;;;;;21.07;17.27;;;;;;;2.73;100.00;101642.41;1793390;78;21134;-81
2021/11/12 06:12:13;;;;;;;21.12;17.10;;;;;;;2.77;100.00;101650.44;1761965;80;21046;-82
2021/11/12 06:14:42;;;;;;;26.25;16.87;;;;;;;2.80;100.00;101649.08;1793145;80;21025;-80
2021/11/12 06:17:10;;;;;;;21.93;16.30;;;;;;;2.83;100.00;101652.02;1789803;80;20998;-82
2021/11/12 06:19:37;;;;;;;22.55;16.30;;;;;;;2.87;100.00;101657.92;1784838;80;21089;-80
2021/11/12 06:22:06;;;;;;;22.37;17.25;;;;;;;2.92;100.00;101653.06;1752797;80;22157;-80
2021/11/12 06:24:33;;;;;;;24.10;16.45;;;;;;;2.95;100.00;101652.12;1752434;80;20936;-81
2021/11/12 06:27:00;;;;;;;20.65;15.40;;;;;;;2.99;100.00;101651.18;1722147;81;21076;-80
2021/11/12 06:29:29;;;;;;;37.05;17.07;;;;;;;3.00;100.00;101641.30;1718676;82;21104;-80
2021/11/12 06:31:56;;;;;;;31.02;18.12;;;;;;;3.10;100.00;101644.45;1719855;80;21065;-83
2021/11/12 06:34:23;;;;;;;28.50;16.80;;;;;;;3.34;100.00;101640.34;1784688;80;21844;-82
2021/11/12 06:36:51;;;;;;;25.92;17.90;;;;;;;3.55;100.00;101638.05;1784909;80;21355;-83
2021/11/12 06:39:19;;;;;;;21.57;17.00;;;;;;;3.84;100.00;101627.30;1778438;80;21088;-82
2021/11/12 06:49:53;;;;;;;20.97;15.38;;;;;;;4.20;100.00;101608.55;1794885;78;21029;-80
2021/11/12 06:52:18;;;;;;;20.65;15.63;;;;;;;4.26;100.00;101608.80;1822310;78;21072;-80
2021/11/12 06:54:46;;;;;;;22.32;15.38;;;;;;;4.33;100.00;101593.52;1788533;78;21014;-80
2021/11/12 06:57:15;;;;;;;19.10;14.07;;;;;;;4.37;100.00;101592.52;1785055;80;20985;-80
2021/11/12 06:59:43;;;;;;;22.73;14.30;;;;;;;4.44;100.00;101590.58;1785774;80;21057;-79
2021/11/12 07:02:14;;;;;;;20.10;13.75;;;;;;;4.51;100.00;101588.65;1785269;79;21091;-80
2021/11/12 07:04:41;;;;;;;33.35;14.63;;;;;;;4.58;100.00;101586.25;1785691;79;21041;-79
2021/11/12 07:07:09;;;;;;;19.55;13.00;;;;;;;4.66;100.00;101572.64;1757747;80;21061;-80
2021/11/12 07:09:39;;;;;;;18.98;13.22;;;;;;;4.77;100.00;101564.52;1791541;78;21017;-79
2021/11/12 07:12:07;;;;;;;20.62;13.08;;;;;;;4.79;100.00;101563.16;1817241;78;21674;-79
2021/11/12 07:14:36;;;;;;;15.68;13.22;;;;;;;4.79;100.00;101571.76;1807091;78;21002;-80
2021/11/12 07:17:05;;;;;;;14.98;12.68;;;;;;;4.84;100.00;101580.63;1748437;80;21969;-80
2021/11/12 07:19:32;;;;;;;15.30;13.40;;;;;;;4.88;100.00;101571.87;1733829;80;21026;-82
2021/11/12 07:22:00;;;;;;;17.73;13.72;;;;;;;4.92;100.00;101567.00;1774848;80;21029;-82
2021/11/12 07:24:28;;;;;;;20.27;12.05;;;;;;;4.97;100.00;101568.09;1723279;82;21041;-80
2021/11/12 07:26:56;;;;;;;27.20;12.75;;;;;;;5.01;100.00;101564.06;1703299;82;21485;-79
2021/11/12 07:29:25;;;;;;;21.75;13.15;;;;;;;5.08;100.00;101550.95;1714499;82;21499;-79
2021/11/12 07:31:52;;;;;;;17.07;12.18;;;;;;;5.17;100.00;101553.16;1707821;82;21332;-80
2021/11/12 07:34:19;;;;;;;24.80;13.78;;;;;;;5.26;100.00;101548.13;1696193;83;21114;-80
2021/11/12 07:36:50;;;;;;;20.17;13.15;;;;;;;5.34;100.00;101549.50;1697539;83;21087;-80
2021/11/12 07:47:17;;;;;;;18.25;11.40;;;;;;;5.64;100.00;101553.11;1665437;85;21521;-80
2021/11/12 07:49:58;;;;;;;18.15;10.82;;;;;;;5.73;100.00;101548.02;1658183;82;21780;-80
2021/11/12 07:52:30;;;;;;;15.38;10.68;;;;;;;5.79;100.00;101540.02;1732773;82;21102;-79
2021/11/12 07:55:00;;;;;;;17.65;10.78;;;;;;;5.85;100.00;101544.09;1750717;82;21033;-80
2021/11/12 07:57:28;;;;;;;15.43;10.58;;;;;;;5.93;100.00;101540.75;1723370;82;21037;-80
2021/11/12 07:59:56;;;;;;;17.40;10.43;;;;;;;6.00;100.00;101533.16;1750855;82;21017;-80
2021/11/12 08:02:26;;;;;;;20.77;10.55;;;;;;;6.11;100.00;101538.35;1750834;81;21171;-79
2021/11/12 08:05:02;;;;;;;16.15;11.93;;;;;;;6.23;100.00;101537.00;1723109;82;21014;-79
2021/11/12 08:07:31;;;;;;;16.80;12.88;;;;;;;6.33;100.00;101536.97;1719910;82;21049;-79
2021/11/12 08:10:00;;;;;;;14.47;10.43;;;;;;;6.39;100.00;101525.53;1747070;82;21586;-80
2021/11/12 08:12:34;;;;;;;14.05;10.08;;;;;;;6.42;100.00;101520.23;1715068;82;21051;-79
2021/11/12 08:15:11;;;;;;;15.72;10.80;;;;;;;6.43;100.00;101527.09;1714464;83;21842;-79
2021/11/12 08:17:44;;;;;;;14.18;10.35;;;;;;;6.47;100.00;101533.37;1698247;83;21014;-79
2021/11/12 08:25:46;;;;;;;16.55;11.80;;;;;;;6.59;100.00;101524.66;1649638;84;21669;-80
2021/11/12 08:31:06;;;;;;;16.48;12.90;;;;;;;6.59;100.00;101504.82;1724748;83;20951;-80
2021/11/12 08:39:04;;;;;;;212.32;106.92;;;;;;;6.59;100.00;101493.17;1725382;83;21038;-81
2021/11/12 08:44:20;;;;;;;62.30;29.85;;;;;;;6.60;100.00;101482.35;1722043;82;21061;-79
2021/11/12 08:46:48;;;;;;;21.57;13.75;;;;;;;6.62;100.00;101474.90;1701528;82;21104;-79
2021/11/12 08:49:13;;;;;;;17.40;13.05;;;;;;;6.62;100.00;101476.19;1684285;83;21077;-80
2021/11/12 08:51:40;;;;;;;19.00;14.58;;;;;;;6.66;100.00;101474.77;1687640;83;21076;-80
2021/11/12 08:54:08;;;;;;;24.18;17.48;;;;;;;6.72;100.00;101470.17;1710288;83;21172;-79
2021/11/12 08:56:36;;;;;;;21.05;13.60;;;;;;;6.86;100.00;101463.05;1727995;83;21045;-80
2021/11/12 08:59:04;;;;;;;17.87;13.22;;;;;;;6.99;100.00;101463.80;1701473;83;21011;-80
2021/11/12 09:01:35;;;;;;;27.00;17.27;;;;;;;7.13;100.00;101460.09;1680950;83;21034;-79
2021/11/12 09:04:04;;;;;;;16.57;13.28;;;;;;;7.25;100.00;101457.37;1695839;84;21025;-79
2021/11/12 09:06:32;;;;;;;16.15;12.00;;;;;;;7.38;100.00;101454.57;1712376;83;21990;-79
2021/11/12 09:09:01;;;;;;;15.50;11.55;;;;;;;7.49;100.00;101442.38;1697557;83;21653;-79
2021/11/12 09:11:28;;;;;;;15.43;11.57;;;;;;;7.59;100.00;101438.91;1697340;83;21105;-79
2021/11/12 09:14:00;;;;;;;13.30;10.35;;;;;;;7.68;100.00;101433.70;1724522;82;21051;-79
2021/11/12 09:16:34;;;;;;;11.50;9.43;;;;;;;7.77;100.00;101436.32;1716807;82;21121;-81
2021/11/12 09:19:02;;;;;;;13.80;9.63;;;;;;;7.82;100.00;101430.44;1701523;83;21170;-80
2021/11/12 09:21:30;;;;;;;18.52;11.25;;;;;;;7.89;100.00;101422.72;1704036;83;21117;-80
2021/11/12 09:23:57;;;;;;;14.30;9.70;;;;;;;7.94;100.00;101415.53;1703785;83;21085;-79
2021/11/12 09:26:25;;;;;;;13.20;9.50;;;;;;;7.97;100.00;101412.80;1704601;83;21543;-80
2021/11/12 09:28:53;;;;;;;16.80;10.90;;;;;;;7.96;100.00;101419.36;1707027;83;21073;-80
2021/11/12 09:31:22;;;;;;;14.95;9.38;;;;;;;7.87;100.00;101415.03;1717056;83;21211;-79
2021/11/12 09:33:51;;;;;;;11.43;9.35;;;;;;;7.83;100.00;101408.30;1712351;83;21093;-79
2021/11/12 09:36:18;;;;;;;19.87;11.65;;;;;;;7.85;100.00;101406.48;1711152;83;21113;-79
2021/11/12 09:38:46;;;;;;;63.83;38.95;;;;;;;7.90;100.00;101403.18;1684918;83;21132;-79
2021/11/12 09:41:15;;;;;;;83.95;41.83;;;;;;;7.97;100.00;101397.70;1686990;84;21097;-79
2021/11/12 09:43:52;;;;;;;46.65;25.95;;;;;;;7.99;100.00;101394.11;1658877;85;21065;-79
2021/11/12 09:46:20;;;;;;;23.42;15.10;;;;;;;8.05;100.00;101385.17;1689979;83;21570;-80
2021/11/12 09:48:49;;;;;;;25.65;17.65;;;;;;;8.09;100.00;101385.85;1727310;82;21003;-79
2021/11/12 09:51:18;;;;;;;165.07;79.00;;;;;;;8.14;100.00;101380.77;1745696;80;21002;-80
2021/11/12 09:53:46;;;;;;;35.52;20.60;;;;;;;8.18;100.00;101380.16;1719799;83;20985;-79
2021/11/12 09:56:13;;;;;;;33.98;17.98;;;;;;;8.18;100.00;101377.56;1692809;83;21034;-79
2021/11/12 09:58:50;;;;;;;16.45;11.40;;;;;;;8.18;100.00;101384.91;1719708;83;21033;-79
2021/11/12 10:01:28;;;;;;;19.62;14.47;;;;;;;8.19;100.00;101376.20;1715315;83;21057;-79
2021/11/12 10:03:50;;;;;;;74.67;43.60;;;;;;;8.22;100.00;101380.39;1715646;82;21049;-79
2021/11/12 10:06:27;;;;;;;28.40;20.20;;;;;;;8.21;100.00;101376.94;1702200;83;21576;-79
2021/11/12 10:08:56;;;;;;;135.52;81.28;;;;;;;8.19;100.00;101373.61;1670751;83;21942;-79
2021/11/12 10:11:28;;;;;;;58.15;36.25;;;;;;;8.22;100.00;101370.01;1670275;83;21012;-79
2021/11/12 10:14:00;;;;;;;17.48;12.68;;;;;;;8.25;100.00;101370.30;1680894;83;21563;-80
2021/11/12 10:16:40;;;;;;;19.85;13.68;;;;;;;8.26;100.00;101366.79;1693746;83;21053;-78
2021/11/12 10:19:20;;;;;;;21.27;14.28;;;;;;;8.28;100.00;101368.38;1710823;82;21041;-80
2021/11/12 10:21:53;;;;;;;20.80;12.55;;;;;;;8.31;100.00;101362.17;1732513;82;21090;-79
2021/11/12 10:24:37;;;;;;;17.77;12.95;;;;;;;8.30;100.00;101360.50;1771039;80;21033;-81
2021/11/12 10:27:23;;;;;;;22.13;12.60;;;;;;;8.29;100.00;101370.53;1781533;80;21538;-79
2021/11/12 10:29:56;;;;;;;19.07;11.15;;;;;;;8.26;100.00;101357.70;1770595;80;21546;-79
2021/11/12 10:32:27;;;;;;;13.95;10.63;;;;;;;8.24;100.00;101352.61;1768617;78;20997;-80
2021/11/12 10:35:02;;;;;;;15.75;10.95;;;;;;;8.24;100.00;101353.91;1767887;78;21020;-79
2021/11/12 10:37:33;;;;;;;15.50;11.65;;;;;;;8.23;100.00;101350.08;1766242;78;21002;-79
2021/11/12 10:40:13;;;;;;;16.95;12.63;;;;;;;8.24;100.00;101355.64;1739980;80;21078;-79
2021/11/12 10:42:47;;;;;;;18.50;12.00;;;;;;;8.23;100.00;101357.86;1713249;81;21081;-79
2021/11/12 10:45:23;;;;;;;18.20;14.05;;;;;;;8.21;100.00;101357.48;1736619;82;21037;-79
2021/11/12 10:47:57;;;;;;;20.68;14.15;;;;;;;8.21;100.00;101369.16;1745680;80;21169;-80
2021/11/12 10:50:29;;;;;;;20.12;14.80;;;;;;;8.24;100.00;101364.73;1715664;82;21066;-79
2021/11/12 10:53:08;;;;;;;22.73;16.45;;;;;;;8.29;100.00;101357.55;1710026;82;21287;-78
2021/11/12 10:55:36;;;;;;;24.75;17.85;;;;;;;8.34;100.00;101351.65;1773714;80;21092;-80
2021/11/12 10:58:09;;;;;;;24.23;18.27;;;;;;;8.37;100.00;101350.20;1781542;80;21561;-78
2021/11/12 11:00:45;;;;;;;21.42;17.25;;;;;;;8.40;100.00;101357.80;1762134;80;21739;-79
2021/11/12 11:03:24;;;;;;;23.40;18.30;;;;;;;8.38;100.00;101341.46;1771574;80;21112;-80
2021/11/12 11:05:56;;;;;;;25.35;19.42;;;;;;;8.36;100.00;101338.14;1783931;80;21060;-79
2021/11/12 11:08:27;;;;;;;28.85;21.40;;;;;;;8.37;100.00;101341.11;1785120;80;21621;-79
2021/11/12 11:11:09;;;;;;;31.85;22.62;;;;;;;8.41;100.00;101337.89;1777135;79;27052;-81
2021/11/12 11:13:42;;;;;;;26.17;18.40;;;;;;;8.45;100.00;101331.12;1750969;80;21122;-79
2021/11/12 11:16:19;;;;;;;32.85;18.65;;;;;;;8.49;100.00;101327.48;1753612;79;21513;-81
2021/11/12 11:18:51;;;;;;;56.08;26.45;;;;;;;8.48;100.00;101319.79;1789952;80;21059;-79
2021/11/12 11:24:03;;;;;;;132.97;75.22;;;;;;;8.36;100.00;101313.48;1743469;80;21127;-80
2021/11/12 11:26:49;;;;;;;59.23;35.58;;;;;;;8.33;100.00;101314.46;1751953;80;21049;-79
2021/11/12 11:29:22;;;;;;;61.25;32.50;;;;;;;8.33;100.00;101313.64;1763729;80;21061;-80
2021/11/12 11:31:54;;;;;;;61.98;24.87;;;;;;;8.31;100.00;101311.58;1722680;79;21017;-79
2021/11/12 11:34:24;;;;;;;93.37;46.42;;;;;;;8.32;100.00;101311.52;1794891;79;21059;-79
2021/11/12 11:36:59;;;;;;;140.55;75.75;;;;;;;8.32;100.00;101311.96;1794980;79;21070;-79
2021/11/12 11:39:28;;;;;;;78.07;42.75;;;;;;;8.30;100.00;101313.79;1792110;79;21521;-78
2021/11/12 11:42:02;;;;;;;41.77;28.45;;;;;;;8.30;100.00;101319.84;1794951;79;21015;-78
2021/11/12 11:44:29;;;;;;;116.47;60.80;;;;;;;8.29;100.00;101315.56;1754866;80;21117;-81
2021/11/12 11:47:02;;;;;;;76.42;40.48;;;;;;;8.29;100.00;101312.14;1777129;80;21132;-80
2021/11/12 11:49:29;;;;;;;28.83;19.82;;;;;;;8.31;100.00;101306.39;1781183;80;21520;-80
2021/11/12 11:52:04;;;;;;;59.67;38.90;;;;;;;8.33;100.00;101301.95;1785789;80;21768;-79
2021/11/12 11:54:47;;;;;;;36.00;21.42;;;;;;;8.32;100.00;101311.52;1791845;79;21494;-79
2021/11/12 11:57:20;;;;;;;28.23;18.30;;;;;;;8.30;100.00;101312.05;1750176;80;21921;-80
2021/11/12 11:59:48;;;;;;;23.40;17.52;;;;;;;8.30;100.00;101318.98;1779700;80;20970;-80
2021/11/12 12:02:21;;;;;;;26.07;16.87;;;;;;;8.30;100.00;101310.75;1780833;80;21032;-78
2021/11/12 12:04:52;;;;;;;29.95;21.57;;;;;;;8.34;100.00;101312.72;1766412;80;21620;-80
2021/11/12 12:07:22;;;;;;;;;;;;;;;8.32;100.00;101309.36;1738119;80;21088;-78
2021/11/12 12:10:19;;;;;;;23.13;13.93;;;;;;;8.30;100.00;101309.90;1733854;80;20500;-78
2021/11/12 12:12:57;;;;;;;19.82;14.38;;;;;;;8.26;100.00;101310.53;1749318;81;21026;-79
2021/11/12 12:15:35;;;;;;;20.65;14.83;;;;;;;8.21;100.00;101314.66;1716168;82;21117;-78
2021/11/12 12:18:18;;;;;;;22.82;15.13;;;;;;;8.16;100.00;101311.49;1755486;81;21149;-78
2021/11/12 12:21:22;;;;;;;19.17;13.30;;;;;;;8.16;100.00;101308.08;1713162;81;20973;-78
2021/11/12 13:26:03;;;;;;;307.65;159.03;;;;;;;7.76;100.00;101304.53;1736003;79;21054;-80
2021/11/12 13:28:47;;;;;;;220.22;98.65;;;;;;;7.72;100.00;101301.27;1764853;79;21233;-80
2021/11/12 13:31:19;;;;;;;204.73;82.50;;;;;;;7.71;100.00;101306.54;1764531;80;21538;-79
2021/11/12 13:34:02;;;;;;;102.92;48.02;;;;;;;7.67;100.00;101306.30;1740047;80;21061;-78
2021/11/12 13:36:37;;;;;;;58.35;28.55;;;;;;;7.63;100.00;101304.80;1789161;79;21768;-78
2021/11/12 13:39:18;;;;;;;29.85;17.73;;;;;;;7.60;100.00;101316.61;1760265;80;21157;-81
2021/11/12 13:41:59;;;;;;;26.10;16.60;;;;;;;7.53;100.00;101318.23;1764691;80;21082;-81
2021/11/12 13:44:35;;;;;;;31.33;18.47;;;;;;;7.49;100.00;101324.47;1764777;80;21022;-80
2021/11/12 13:47:08;;;;;;;72.32;43.63;;;;;;;7.45;100.00;101320.38;1793897;80;21566;-80
2021/11/12 13:49:43;;;;;;;62.60;36.63;;;;;;;7.41;100.00;101318.87;1755428;80;21481;-79
2021/11/12 13:52:22;;;;;;;41.90;26.07;;;;;;;7.35;100.00;101311.37;1793985;80;21066;-80
2021/11/12 13:55:05;;;;;;;45.98;27.40;;;;;;;7.29;100.00;101318.17;1793639;79;21141;-80
2021/11/12 13:57:35;;;;;;;57.50;33.92;;;;;;;7.22;100.00;101321.52;1764614;80;21051;-80
2021/11/12 14:00:12;;;;;;;39.18;25.88;;;;;;;7.13;100.00;101322.81;1793879;80;21042;-80
2021/11/12 14:03:10;;;;;;;33.40;24.07;;;;;;;7.05;100.00;101321.06;1765602;80;21090;-81
2021/11/12 14:05:59;;;;;;;31.75;21.55;;;;;;;7.00;100.00;101328.23;1764910;80;21062;-80
2021/11/12 14:08:45;;;;;;;38.55;24.75;;;;;;;6.94;100.00;101334.53;1769963;80;21106;-80
2021/11/12 14:11:23;;;;;;;34.73;22.87;;;;;;;6.85;100.00;101334.97;1793749;79;20992;-80
2021/11/12 14:13:54;;;;;;;34.73;25.32;;;;;;;6.78;100.00;101331.83;1765077;80;21106;-81
2021/11/12 14:16:34;;;;;;;38.95;26.02;;;;;;;6.74;100.00;101331.14;1765422;80;21489;-80
2021/11/12 14:21:54;;;;;;;34.20;23.57;;;;;;;6.67;100.00;101340.11;1762222;79;21773;-82
2021/11/12 14:27:12;;;;;;;28.38;21.57;;;;;;;6.61;100.00;101338.64;1740842;79;21035;-79
2021/11/12 14:32:48;;;;;;;39.03;23.92;;;;;;;6.58;100.00;101343.98;1795833;79;21035;-80
2021/11/12 14:35:31;;;;;;;35.58;24.18;;;;;;;6.59;100.00;101350.84;1791038;79;21503;-80
2021/11/12 14:38:17;;;;;;;33.67;22.65;;;;;;;6.57;100.00;101353.94;1790629;79;21047;-79
2021/11/12 14:44:04;;;;;;;44.38;23.22;;;;;;;6.50;100.00;101362.05;1729954;81;21064;-79
2021/11/12 14:49:16;;;;;;;31.77;23.07;;;;;;;6.41;100.00;101368.02;1770918;79;21958;-80
2021/11/12 14:54:29;;;;;;;33.02;20.30;;;;;;;6.31;100.00;101377.95;1795635;79;21047;-80
2021/11/12 14:57:03;;;;;;;29.23;19.48;;;;;;;6.23;100.00;101374.88;1792257;79;21110;-82
2021/11/12 14:59:29;;;;;;;25.95;17.98;;;;;;;6.13;100.00;101381.36;1790688;79;21003;-80
2021/11/12 15:01:58;;;;;;;25.48;18.50;;;;;;;6.04;100.00;101385.66;1795370;79;40265;-80
2021/11/12 15:04:25;;;;;;;30.88;19.42;;;;;;;6.00;100.00;101385.78;1761603;79;21038;-80
2021/11/12 15:06:53;;;;;;;26.20;19.42;;;;;;;5.92;100.00;101382.66;1761620;79;21670;-80
2021/11/12 15:09:29;;;;;;;27.82;19.73;;;;;;;5.86;100.00;101386.81;1784921;79;21515;-80
2021/11/12 15:11:52;;;;;;;27.15;19.80;;;;;;;5.80;100.00;101389.66;1782902;80;21052;-80
2021/11/12 15:14:27;;;;;;;30.75;18.23;;;;;;;5.73;100.00;101392.13;1784717;80;21515;-80
2021/11/12 15:16:55;;;;;;;30.62;20.85;;;;;;;5.73;100.00;101397.30;1761846;79;21131;-79
2021/11/12 15:19:26;;;;;;;30.77;20.12;;;;;;;5.74;100.00;101396.36;1811638;78;21768;-80
2021/11/12 15:22:03;;;;;;;31.55;20.77;;;;;;;5.73;100.00;101400.70;1813850;78;21555;-81
2021/11/12 15:32:03;;;;;;;32.25;21.95;;;;;;;5.80;100.00;101411.64;1733001;82;21058;-81
2021/11/12 15:34:29;;;;;;;27.58;20.75;;;;;;;5.87;100.00;101409.17;1742901;82;21423;-82
2021/11/12 15:37:02;;;;;;;31.37;21.60;;;;;;;5.82;100.00;101413.68;1784441;80;21080;-83
2021/11/12 15:39:41;;;;;;;57.60;24.80;;;;;;;5.71;100.00;101410.72;1768046;79;21053;-81
2021/11/12 15:44:30;;;;;;;86.20;25.20;;;;;;;5.80;100.00;101419.39;1817482;78;21499;-81
2021/11/12 15:47:15;;;;;;;;;;;;;;;5.89;100.00;101420.73;1821526;78;21484;-79
2021/11/12 15:49:38;;;;;;;42.20;20.82;;;;;;;5.94;100.00;101423.95;1807659;78;20135;-80
2021/11/12 15:52:11;;;;;;;41.00;21.85;;;;;;;5.89;100.00;101425.44;1812455;78;21119;-82
2021/11/12 16:08:12;;;;;;;36.98;22.73;;;;;;;5.52;100.00;101435.59;1748000;80;21021;-80
2021/11/12 16:13:34;;;;;;;38.50;25.62;;;;;;;5.41;100.00;101447.26;1784079;79;21479;-81
2021/11/12 16:15:46;;;;;;;41.20;27.10;;;;;;;5.35;100.00;101447.88;1766337;80;21142;-83
2021/11/12 16:25:50;;;;;;;44.15;30.60;;;;;;;5.26;100.00;101448.23;1743371;80;21007;-85
2021/11/12 16:28:21;;;;;;;53.23;30.75;;;;;;;5.24;100.00;101456.95;1784877;80;21048;-83
2021/11/12 16:30:54;;;;;;;53.33;33.55;;;;;;;5.23;100.00;101458.70;1781514;79;21821;-82